createdAt,value
2022-12-15T00:00:56.880Z,7.67
2022-12-15T00:03:47.204Z,7.67
2022-12-15T00:06:37.458Z,7.67
2022-12-15T00:09:30.855Z,7.65
2022-12-15T00:12:21.740Z,7.65
2022-12-15T00:15:11.987Z,7.67
2022-12-15T00:18:03.666Z,7.67
2022-12-15T00:20:54.560Z,7.66
2022-12-15T00:23:44.569Z,7.67
2022-12-15T00:26:35.437Z,7.68
2022-12-15T00:29:27.437Z,7.69
2022-12-15T00:32:17.709Z,7.69
2022-12-15T00:35:09.119Z,7.71
2022-12-15T00:37:59.679Z,7.71
2022-12-15T00:40:32.696Z,7.71
2022-12-15T00:43:05.887Z,7.72
2022-12-15T00:45:56.053Z,7.72
2022-12-15T00:48:29.190Z,7.72
2022-12-15T00:51:02.559Z,7.75
2022-12-15T00:53:53.240Z,7.75
2022-12-15T00:56:43.522Z,7.76
2022-12-15T00:59:34.994Z,7.78
2022-12-15T01:02:25.594Z,7.78
2022-12-15T01:05:16.014Z,7.76
2022-12-15T01:08:07.423Z,7.77
2022-12-15T01:10:57.852Z,7.76
2022-12-15T01:13:49.804Z,7.77
2022-12-15T01:16:40.768Z,7.75
2022-12-15T01:19:31.628Z,7.74
2022-12-15T01:22:04.746Z,7.73
2022-12-15T01:24:39.456Z,7.75
2022-12-15T01:27:12.365Z,7.73
2022-12-15T01:29:45.515Z,7.73
2022-12-15T01:32:18.523Z,7.75
2022-12-15T01:34:51.870Z,7.75
2022-12-15T01:37:24.814Z,7.74
2022-12-15T01:40:16.463Z,7.75
2022-12-15T01:42:49.530Z,7.72
2022-12-15T01:45:48.748Z,7.75
2022-12-15T01:48:28.090Z,7.74
2022-12-15T01:51:07.232Z,7.72
2022-12-15T01:53:44.460Z,7.74
2022-12-15T01:56:19.570Z,7.70
2022-12-15T01:58:56.341Z,7.66
2022-12-15T02:01:29.736Z,7.60
2022-12-15T02:04:03.599Z,7.58
2022-12-15T02:06:37.757Z,7.55
2022-12-15T02:09:10.964Z,7.48
2022-12-15T02:12:01.009Z,7.46
2022-12-15T02:14:46.840Z,7.43
2022-12-15T02:17:34.200Z,7.40
2022-12-15T02:20:42.836Z,7.38
2022-12-15T02:23:50.627Z,7.36
2022-12-15T02:27:03.527Z,7.33
2022-12-15T02:30:07.984Z,7.31
2022-12-15T02:32:49.309Z,7.30
2022-12-15T02:35:26.050Z,7.27
2022-12-15T02:37:59.415Z,7.26
2022-12-15T02:40:32.351Z,7.24
2022-12-15T02:43:07.967Z,7.23
2022-12-15T02:45:58.389Z,7.24
2022-12-15T02:48:38.981Z,7.26
2022-12-15T02:51:26.694Z,7.28
2022-12-15T02:54:26.063Z,7.30
2022-12-15T02:57:07.107Z,7.33
2022-12-15T02:59:46.870Z,7.35
2022-12-15T03:02:21.454Z,7.37
2022-12-15T03:04:55.363Z,7.38
2022-12-15T03:07:29.081Z,7.40
2022-12-15T03:10:04.225Z,7.42
2022-12-15T03:12:37.625Z,7.42
2022-12-15T03:15:11.316Z,7.42
2022-12-15T03:17:45.824Z,7.42
2022-12-15T03:20:19.038Z,7.42
2022-12-15T03:22:52.229Z,7.43
2022-12-15T03:25:25.123Z,7.42
2022-12-15T03:27:58.222Z,7.40
2022-12-15T03:30:31.873Z,7.41
2022-12-15T03:33:06.370Z,7.42
2022-12-15T03:35:39.218Z,7.40
2022-12-15T03:38:12.175Z,7.42
2022-12-15T03:40:45.233Z,7.42
2022-12-15T03:43:18.270Z,7.42
2022-12-15T03:45:51.230Z,7.44
2022-12-15T03:48:25.508Z,7.44
2022-12-15T03:50:59.238Z,7.42
2022-12-15T03:53:32.684Z,7.41
2022-12-15T03:56:06.067Z,7.42
2022-12-15T03:58:39.212Z,7.41
2022-12-15T04:01:14.140Z,7.40
2022-12-15T04:03:48.935Z,7.36
2022-12-15T04:06:22.008Z,7.34
2022-12-15T04:08:56.304Z,7.32
2022-12-15T04:11:29.334Z,7.29
2022-12-15T04:14:02.869Z,7.30
2022-12-15T04:16:35.761Z,7.28
2022-12-15T04:19:27.386Z,7.29
2022-12-15T04:22:02.680Z,7.28
2022-12-15T04:24:53.302Z,7.29
2022-12-15T04:27:43.564Z,7.27
2022-12-15T04:30:36.939Z,7.24
2022-12-15T04:33:30.824Z,7.24
2022-12-15T04:36:23.972Z,7.22
2022-12-15T04:39:14.048Z,7.23
2022-12-15T04:42:05.963Z,7.24
2022-12-15T04:44:56.632Z,7.25
2022-12-15T04:47:47.949Z,7.26
2022-12-15T04:50:38.205Z,7.29
2022-12-15T04:53:33.884Z,7.33
2022-12-15T04:56:29.279Z,7.34
2022-12-15T04:59:20.391Z,7.36
2022-12-15T05:02:10.773Z,7.36
2022-12-15T05:05:01.500Z,7.36
2022-12-15T05:07:52.003Z,7.33
2022-12-15T05:10:43.502Z,7.33
2022-12-15T05:13:34.699Z,7.28
2022-12-15T05:16:25.896Z,7.25
2022-12-15T05:19:16.171Z,7.19
2022-12-15T05:22:06.804Z,7.19
2022-12-15T05:24:57.418Z,7.16
2022-12-15T05:27:49.712Z,7.14
2022-12-15T05:30:40.096Z,7.07
2022-12-15T05:33:13.230Z,7.05
2022-12-15T05:35:46.267Z,7.02
2022-12-15T05:38:19.515Z,6.96
2022-12-15T05:40:52.724Z,6.89
2022-12-15T05:43:27.463Z,6.88
2022-12-15T05:46:05.723Z,6.83
2022-12-15T05:48:38.903Z,6.79
2022-12-15T05:51:13.571Z,6.77
2022-12-15T05:53:46.447Z,6.75
2022-12-15T05:56:19.570Z,6.73
2022-12-15T05:58:54.490Z,6.73
2022-12-15T06:01:28.371Z,6.72
2022-12-15T06:04:01.611Z,6.74
2022-12-15T06:06:34.768Z,6.72
2022-12-15T06:09:08.895Z,6.71
2022-12-15T06:11:41.899Z,6.72
2022-12-15T06:14:16.391Z,6.70
2022-12-15T06:16:51.193Z,6.69
2022-12-15T06:19:24.791Z,6.69
2022-12-15T06:21:58.005Z,6.72
2022-12-15T06:24:31.118Z,6.72
2022-12-15T06:27:04.030Z,6.74
2022-12-15T06:29:38.568Z,6.79
2022-12-15T06:32:12.290Z,6.80
2022-12-15T06:34:45.570Z,6.83
2022-12-15T06:37:18.632Z,6.87
2022-12-15T06:39:51.674Z,6.90
2022-12-15T06:42:24.731Z,6.93
2022-12-15T06:44:59.114Z,6.95
2022-12-15T06:47:32.068Z,6.93
2022-12-15T06:50:05.249Z,6.94
2022-12-15T06:52:38.628Z,6.92
2022-12-15T06:55:11.918Z,6.89
2022-12-15T06:57:45.033Z,6.86
2022-12-15T07:00:38.220Z,6.85
2022-12-15T07:03:15.638Z,6.80
2022-12-15T07:05:48.841Z,6.76
2022-12-15T07:08:25.639Z,6.75
2022-12-15T07:11:04.226Z,6.73
2022-12-15T07:13:37.100Z,6.70
2022-12-15T07:16:12.781Z,6.71
2022-12-15T07:18:46.246Z,6.68
2022-12-15T07:21:19.643Z,6.70
2022-12-15T07:23:56.042Z,6.70
2022-12-15T07:26:30.390Z,6.68
2022-12-15T07:29:03.218Z,6.74
2022-12-15T07:31:37.547Z,6.72
2022-12-15T07:34:10.738Z,6.74
2022-12-15T07:36:48.481Z,6.74
2022-12-15T07:39:27.489Z,6.76
2022-12-15T07:42:01.321Z,6.77
2022-12-15T07:44:34.400Z,6.79
2022-12-15T07:47:08.638Z,6.81
2022-12-15T07:49:41.785Z,6.83
2022-12-15T07:52:14.883Z,6.85
2022-12-15T07:54:48.265Z,6.87
2022-12-15T07:57:21.243Z,6.89
2022-12-15T07:59:54.406Z,6.94
2022-12-15T08:02:28.991Z,6.97
2022-12-15T08:05:03.581Z,6.99
2022-12-15T08:07:36.953Z,7.03
2022-12-15T08:10:10.853Z,7.06
2022-12-15T08:12:43.654Z,7.08
2022-12-15T08:15:16.689Z,7.12
2022-12-15T08:17:56.124Z,7.16
2022-12-15T08:20:30.473Z,7.19
2022-12-15T08:23:04.057Z,7.23
2022-12-15T08:25:37.480Z,7.26
2022-12-15T08:28:12.824Z,7.29
2022-12-15T08:30:45.888Z,7.29
2022-12-15T08:33:20.625Z,7.30
2022-12-15T08:35:57.337Z,7.30
2022-12-15T08:38:31.150Z,7.29
2022-12-15T08:41:09.112Z,7.30
2022-12-15T08:43:48.100Z,7.28
2022-12-15T08:46:27.398Z,7.28
2022-12-15T08:49:03.498Z,7.26
2022-12-15T08:51:36.626Z,7.24
2022-12-15T08:54:10.552Z,7.24
2022-12-15T08:56:43.984Z,7.21
2022-12-15T08:59:17.122Z,7.18
2022-12-15T09:01:50.255Z,7.17
2022-12-15T09:04:24.959Z,7.15
2022-12-15T09:06:58.597Z,7.12
2022-12-15T09:09:31.527Z,7.11
2022-12-15T09:12:04.683Z,7.09
2022-12-15T09:14:37.851Z,7.10
2022-12-15T09:17:10.866Z,7.13
2022-12-15T09:19:45.530Z,7.14
2022-12-15T09:22:19.790Z,7.16
2022-12-15T09:24:52.644Z,7.19
2022-12-15T09:27:25.665Z,7.20
2022-12-15T09:29:59.192Z,7.22
2022-12-15T09:32:32.292Z,7.25
2022-12-15T09:35:07.885Z,7.30
2022-12-15T09:37:40.842Z,7.33
2022-12-15T09:40:15.118Z,7.40
2022-12-15T09:43:05.022Z,7.49
2022-12-15T09:45:53.320Z,7.57
2022-12-15T09:48:34.746Z,7.64
2022-12-15T09:51:16.040Z,7.71
2022-12-15T09:53:56.861Z,7.72
2022-12-15T09:56:40.919Z,7.79
2022-12-15T09:59:30.623Z,7.83
2022-12-15T10:02:30.586Z,7.87
2022-12-15T10:05:14.358Z,7.87
2022-12-15T10:07:50.336Z,7.85
2022-12-15T10:10:32.605Z,7.86
2022-12-15T10:13:11.606Z,7.87
2022-12-15T10:15:51.992Z,7.89
2022-12-15T10:18:31.114Z,7.88
2022-12-15T10:21:04.135Z,7.89
2022-12-15T10:23:39.133Z,7.93
2022-12-15T10:26:21.212Z,7.99
2022-12-15T10:29:17.927Z,8.02
2022-12-15T10:31:54.920Z,8.03
2022-12-15T10:34:30.212Z,8.03
2022-12-15T10:37:04.216Z,8.00
2022-12-15T10:39:40.678Z,8.00
2022-12-15T10:42:23.388Z,7.95
2022-12-15T10:44:57.842Z,7.87
2022-12-15T10:47:36.532Z,7.85
2022-12-15T10:50:24.300Z,7.85
2022-12-15T10:52:58.172Z,7.80
2022-12-15T10:55:40.141Z,7.83
2022-12-15T10:58:19.107Z,7.84
2022-12-15T11:01:08.968Z,7.87
2022-12-15T11:03:42.383Z,7.88
2022-12-15T11:06:20.807Z,7.94
2022-12-15T11:08:57.333Z,7.97
2022-12-15T11:11:52.203Z,8.03
2022-12-15T11:14:29.709Z,8.09
2022-12-15T11:17:02.956Z,8.11
2022-12-15T11:19:43.659Z,8.20
2022-12-15T11:22:25.901Z,8.25
2022-12-15T11:25:06.784Z,8.31
2022-12-15T11:27:44.801Z,8.35
2022-12-15T11:30:20.571Z,8.39
2022-12-15T11:32:56.609Z,8.44
2022-12-15T11:35:34.648Z,8.47
2022-12-15T11:38:18.855Z,8.50
2022-12-15T11:40:52.668Z,8.51
2022-12-15T11:43:51.350Z,8.54
2022-12-15T11:46:27.808Z,8.55
2022-12-15T11:49:29.742Z,8.58
2022-12-15T11:52:09.005Z,8.55
2022-12-15T11:54:48.741Z,8.57
2022-12-15T11:57:44.828Z,8.58
2022-12-15T12:00:21.624Z,8.54
2022-12-15T12:03:06.903Z,8.52
2022-12-15T12:06:00.847Z,8.53
2022-12-15T12:08:51.149Z,8.50
2022-12-15T12:11:29.119Z,8.46
2022-12-15T12:14:20.437Z,8.46
2022-12-15T12:17:03.877Z,8.44
2022-12-15T12:19:42.693Z,8.40
2022-12-15T12:22:24.505Z,8.39
2022-12-15T12:25:00.931Z,8.39
2022-12-15T12:27:42.175Z,8.38
2022-12-15T12:30:17.383Z,8.36
2022-12-15T12:32:59.740Z,8.35
2022-12-15T12:35:41.009Z,8.33
2022-12-15T12:38:14.728Z,8.30
2022-12-15T12:40:58.886Z,8.30
2022-12-15T12:43:35.153Z,8.30
2022-12-15T12:46:16.182Z,8.30
2022-12-15T12:48:56.282Z,8.30
2022-12-15T12:51:32.156Z,8.28
2022-12-15T12:54:39.877Z,8.29
2022-12-15T12:57:31.864Z,8.25
2022-12-15T13:00:14.288Z,8.22
2022-12-15T13:03:11.402Z,8.20
2022-12-15T13:05:50.578Z,8.14
2022-12-15T13:08:45.942Z,8.10
2022-12-15T13:11:57.698Z,8.05
2022-12-15T13:14:42.093Z,8.00
2022-12-15T13:17:27.888Z,7.95
2022-12-15T13:20:19.070Z,7.87
2022-12-15T13:22:54.740Z,7.80
2022-12-15T13:25:42.997Z,7.79
2022-12-15T13:28:32.442Z,7.72
2022-12-15T13:31:28.806Z,7.70
2022-12-15T13:34:23.751Z,7.67
2022-12-15T13:37:01.879Z,7.66
2022-12-15T13:39:56.131Z,7.68
2022-12-15T13:42:51.279Z,7.69
2022-12-15T13:45:36.878Z,7.71
2022-12-15T13:48:31.590Z,7.74
2022-12-15T13:51:30.087Z,7.74
2022-12-15T13:54:06.137Z,7.77
2022-12-15T13:56:50.805Z,7.79
2022-12-15T13:59:44.066Z,7.80
2022-12-15T14:02:26.668Z,7.80
2022-12-15T14:05:16.178Z,7.82
2022-12-15T14:10:49.004Z,7.81
2022-12-15T14:13:31.029Z,7.83
2022-12-15T14:16:16.526Z,7.81
2022-12-15T14:19:05.589Z,7.80
2022-12-15T14:21:38.383Z,7.78
2022-12-15T14:24:38.535Z,7.78
2022-12-15T14:27:24.236Z,7.76
2022-12-15T14:30:22.925Z,7.74
2022-12-15T14:33:00.183Z,7.71
2022-12-15T14:35:37.603Z,7.67
2022-12-15T14:38:17.078Z,7.67
2022-12-15T14:40:52.113Z,7.63
2022-12-15T14:43:30.166Z,7.64
2022-12-15T14:46:17.044Z,7.64
2022-12-15T14:48:55.444Z,7.62
2022-12-15T14:51:32.699Z,7.60
2022-12-15T14:54:06.013Z,7.54
2022-12-15T14:56:39.594Z,7.47
2022-12-15T14:59:21.482Z,7.43
2022-12-15T15:01:59.662Z,7.39
2022-12-15T15:04:34.385Z,7.37
2022-12-15T15:07:16.157Z,7.34
2022-12-15T15:09:49.449Z,7.31
2022-12-15T15:12:24.351Z,7.31
2022-12-15T15:15:04.343Z,7.31
2022-12-15T15:17:43.967Z,7.28
2022-12-15T15:20:23.085Z,7.25
2022-12-15T15:23:14.854Z,7.24
2022-12-15T15:25:52.520Z,7.20
2022-12-15T15:28:28.189Z,7.18
2022-12-15T15:31:06.372Z,7.14
2022-12-15T15:33:40.635Z,7.14
2022-12-15T15:36:14.027Z,7.14
2022-12-15T15:38:48.134Z,7.16
2022-12-15T15:41:28.862Z,7.19
2022-12-15T15:44:03.494Z,7.19
2022-12-15T15:46:39.914Z,7.20
2022-12-15T15:49:18.264Z,7.19
2022-12-15T15:51:51.447Z,7.17
2022-12-15T15:54:31.252Z,7.14
2022-12-15T15:57:04.443Z,7.12
2022-12-15T15:59:42.177Z,7.09
2022-12-15T16:02:15.918Z,7.07
2022-12-15T16:04:50.703Z,7.08
2022-12-15T16:07:26.165Z,7.07
2022-12-15T16:09:59.191Z,7.05
2022-12-15T16:12:37.056Z,7.04
2022-12-15T16:15:15.610Z,7.02
2022-12-15T16:17:49.038Z,7.00
2022-12-15T16:20:26.981Z,7.01
2022-12-15T16:23:02.710Z,6.99
2022-12-15T16:25:48.403Z,6.98
2022-12-15T16:28:26.307Z,6.93
2022-12-15T16:31:01.694Z,6.91
2022-12-15T16:33:34.832Z,6.91
2022-12-15T16:36:14.084Z,6.91
2022-12-15T16:38:47.374Z,6.89
2022-12-15T16:41:23.277Z,6.89
2022-12-15T16:43:56.193Z,6.87
2022-12-15T16:46:29.375Z,6.85
2022-12-15T16:49:02.320Z,6.85
2022-12-15T16:51:40.024Z,6.86
2022-12-15T16:54:19.090Z,6.81
2022-12-15T16:56:53.454Z,6.82
2022-12-15T16:59:36.177Z,6.79
2022-12-15T17:02:24.734Z,6.80
2022-12-15T17:04:59.020Z,6.75
2022-12-15T17:07:33.235Z,6.74
2022-12-15T17:10:07.135Z,6.71
2022-12-15T17:12:40.050Z,6.66
2022-12-15T17:15:24.905Z,6.63
2022-12-15T17:17:58.187Z,6.59
2022-12-15T17:20:31.669Z,6.53
2022-12-15T17:23:10.858Z,6.53
2022-12-15T17:26:19.530Z,6.46
2022-12-15T17:28:40.669Z,6.42
2022-12-15T17:31:19.275Z,6.39
2022-12-15T17:33:52.870Z,6.32
2022-12-15T17:36:29.096Z,6.27
2022-12-15T17:39:03.538Z,6.22
2022-12-15T17:42:08.051Z,6.17
2022-12-15T17:44:35.627Z,6.12
2022-12-15T17:47:10.330Z,6.05
2022-12-15T17:49:43.490Z,5.99
2022-12-15T17:52:25.565Z,5.96
2022-12-15T17:55:00.064Z,5.89
2022-12-15T17:57:32.941Z,5.84
2022-12-15T18:00:17.239Z,5.77
2022-12-15T18:02:50.440Z,5.72
2022-12-15T18:08:35.207Z,5.58
2022-12-15T18:11:25.934Z,5.51
2022-12-15T18:13:59.044Z,5.46
2022-12-15T18:16:34.530Z,5.43
2022-12-15T18:19:07.655Z,5.39
2022-12-15T18:21:40.644Z,5.38
2022-12-15T18:24:14.367Z,5.35
2022-12-15T18:26:48.807Z,5.30
2022-12-15T18:29:22.164Z,5.28
2022-12-15T18:31:55.026Z,5.24
2022-12-15T18:34:28.244Z,5.20
2022-12-15T18:37:01.105Z,5.20
2022-12-15T18:39:34.264Z,5.19
2022-12-15T18:42:13.566Z,5.17
2022-12-15T18:44:49.396Z,5.15
2022-12-15T18:47:25.032Z,5.14
2022-12-15T18:49:58.389Z,5.11
2022-12-15T18:52:34.660Z,5.09
2022-12-15T18:55:21.095Z,5.10
2022-12-15T18:57:55.720Z,5.07
2022-12-15T19:00:32.593Z,5.05
2022-12-15T19:03:06.140Z,5.02
2022-12-15T19:05:39.880Z,5.02
2022-12-15T19:08:15.520Z,5.03
2022-12-15T19:10:52.093Z,5.00
2022-12-15T19:13:31.465Z,4.97
2022-12-15T19:16:07.245Z,4.95
2022-12-15T19:18:57.617Z,4.92
2022-12-15T19:21:49.734Z,4.90
2022-12-15T19:24:46.242Z,4.89
2022-12-15T19:27:23.195Z,4.86
2022-12-15T19:29:57.924Z,4.86
2022-12-15T19:32:30.967Z,4.82
2022-12-15T19:35:04.428Z,4.82
2022-12-15T19:37:39.672Z,4.80
2022-12-15T19:40:22.259Z,4.79
2022-12-15T19:42:55.514Z,4.77
2022-12-15T19:45:31.748Z,4.75
2022-12-15T19:48:04.820Z,4.75
2022-12-15T19:50:38.898Z,4.74
2022-12-15T19:53:17.451Z,4.75
2022-12-15T19:55:50.316Z,4.74
2022-12-15T19:58:29.751Z,4.75
2022-12-15T20:01:07.214Z,4.71
2022-12-15T20:03:40.619Z,4.70
2022-12-15T20:06:17.426Z,4.70
2022-12-15T20:08:52.292Z,4.68
2022-12-15T20:11:30.082Z,4.66
2022-12-15T20:14:05.275Z,4.62
2022-12-15T20:16:39.631Z,4.63
2022-12-15T20:19:12.640Z,4.61
2022-12-15T20:21:45.634Z,4.61
2022-12-15T20:24:20.478Z,4.58
2022-12-15T20:26:53.384Z,4.57
2022-12-15T20:29:29.743Z,4.58
2022-12-15T20:32:04.117Z,4.59
2022-12-15T20:34:37.190Z,4.56
2022-12-15T20:37:18.915Z,4.59
2022-12-15T20:39:57.175Z,4.59
2022-12-15T20:42:30.633Z,4.58
2022-12-15T20:45:04.197Z,4.60
2022-12-15T20:47:42.388Z,4.64
2022-12-15T20:50:28.001Z,4.67
2022-12-15T20:53:01.097Z,4.65
2022-12-15T20:55:34.490Z,4.64
2022-12-15T20:58:07.355Z,4.67
2022-12-15T21:00:40.816Z,4.70
2022-12-15T21:03:25.075Z,4.70
2022-12-15T21:05:59.339Z,4.70
2022-12-15T21:08:33.220Z,4.70
2022-12-15T21:11:15.303Z,4.73
2022-12-15T21:13:50.427Z,4.73
2022-12-15T21:16:26.079Z,4.70
2022-12-15T21:21:56.018Z,4.70
2022-12-15T21:24:29.857Z,4.72
2022-12-15T21:27:04.139Z,4.72
2022-12-15T21:29:37.326Z,4.73
2022-12-15T21:32:10.710Z,4.72
2022-12-15T21:34:45.933Z,4.74
2022-12-15T21:37:25.001Z,4.76
2022-12-15T21:39:59.454Z,4.73
2022-12-15T21:42:36.353Z,4.76
2022-12-15T21:45:15.188Z,4.73
2022-12-15T21:48:06.413Z,4.74
2022-12-15T21:50:43.423Z,4.72
2022-12-15T21:53:17.680Z,4.70
2022-12-15T21:55:50.912Z,4.70
2022-12-15T21:58:25.067Z,4.69
2022-12-15T22:00:58.002Z,4.70
2022-12-15T22:03:30.959Z,4.70
2022-12-15T22:06:05.520Z,4.70
2022-12-15T22:08:38.367Z,4.71
2022-12-15T22:11:20.078Z,4.72
2022-12-15T22:13:55.199Z,4.71
2022-12-15T22:16:28.605Z,4.71
2022-12-15T22:19:02.140Z,4.69
2022-12-15T22:21:36.260Z,4.68
2022-12-15T22:24:09.970Z,4.65
2022-12-15T22:26:43.256Z,4.64
2022-12-15T22:29:18.683Z,4.65
2022-12-15T22:31:52.104Z,4.66
2022-12-15T22:34:27.855Z,4.68
2022-12-15T22:37:02.073Z,4.68
2022-12-15T22:39:35.069Z,4.70
2022-12-15T22:42:09.146Z,4.71
2022-12-15T22:44:42.038Z,4.71
2022-12-15T22:47:15.177Z,4.73
2022-12-15T22:49:47.964Z,4.73
2022-12-15T22:52:22.574Z,4.77
2022-12-15T22:54:56.995Z,4.77
2022-12-15T22:57:30.432Z,4.80
2022-12-15T23:00:07.741Z,4.84
2022-12-15T23:02:44.066Z,4.86
2022-12-15T23:05:19.803Z,4.87
2022-12-15T23:07:54.561Z,4.89
2022-12-15T23:10:45.405Z,4.90
2022-12-15T23:13:18.374Z,4.90
2022-12-15T23:16:09.217Z,4.93
2022-12-15T23:18:42.099Z,4.92
2022-12-15T23:21:14.976Z,4.94
2022-12-15T23:23:49.300Z,4.94
2022-12-15T23:26:25.959Z,4.92
2022-12-15T23:28:58.931Z,4.89
2022-12-15T23:31:32.041Z,4.86
2022-12-15T23:34:04.892Z,4.82
2022-12-15T23:36:37.810Z,4.78
2022-12-15T23:39:12.092Z,4.76
2022-12-15T23:41:45.063Z,4.73
2022-12-15T23:44:17.973Z,4.70
2022-12-15T23:46:50.953Z,4.70
2022-12-15T23:49:23.797Z,4.71
2022-12-15T23:51:56.987Z,4.71
2022-12-15T23:54:33.452Z,4.74
2022-12-15T23:57:06.283Z,4.74
2022-12-15T23:59:39.097Z,4.75
